createdAt,value
2023-05-31T00:00:14.507Z,15.10
2023-05-31T00:02:43.169Z,15.10
2023-05-31T00:05:12.752Z,15.00
2023-05-31T00:07:42.839Z,15.00
2023-05-31T00:10:12.536Z,15.00
2023-05-31T00:12:41.679Z,14.90
2023-05-31T00:15:14.165Z,14.90
2023-05-31T00:20:15.017Z,14.90
2023-05-31T00:22:43.704Z,15.00
2023-05-31T00:25:12.209Z,15.00
2023-05-31T00:27:41.700Z,15.00
2023-05-31T00:30:15.640Z,15.00
2023-05-31T00:32:44.561Z,15.00
2023-05-31T00:35:13.931Z,15.00
2023-05-31T00:37:45.495Z,15.00
2023-05-31T00:40:14.524Z,15.00
2023-05-31T00:42:43.430Z,15.00
2023-05-31T00:45:16.242Z,15.00
2023-05-31T00:47:45.414Z,15.00
2023-05-31T00:50:16.850Z,15.00
2023-05-31T00:52:47.768Z,15.00
2023-05-31T00:55:16.756Z,15.00
2023-05-31T00:57:46.188Z,15.10
2023-05-31T01:00:18.897Z,15.10
2023-05-31T01:02:48.112Z,15.10
2023-05-31T01:05:18.053Z,15.10
2023-05-31T01:07:47.912Z,15.00
2023-05-31T01:10:17.531Z,15.00
2023-05-31T01:13:04.509Z,15.00
2023-05-31T01:15:41.929Z,15.00
2023-05-31T01:18:21.111Z,15.00
2023-05-31T01:20:55.472Z,14.90
2023-05-31T01:23:44.631Z,14.90
2023-05-31T01:26:39.098Z,14.90
2023-05-31T01:29:11.629Z,14.90
2023-05-31T01:31:41.422Z,14.90
2023-05-31T01:34:11.451Z,14.80
2023-05-31T01:36:41.427Z,14.80
2023-05-31T01:39:13.616Z,14.70
2023-05-31T01:41:48.276Z,14.70
2023-05-31T01:44:19.801Z,14.70
2023-05-31T01:46:49.370Z,14.70
2023-05-31T01:49:18.003Z,14.60
2023-05-31T01:51:48.882Z,14.60
2023-05-31T01:54:17.782Z,14.50
2023-05-31T01:56:50.424Z,14.50
2023-05-31T01:59:21.268Z,14.50
2023-05-31T02:01:50.800Z,14.40
2023-05-31T02:04:21.336Z,14.40
2023-05-31T02:06:50.381Z,14.40
2023-05-31T02:09:19.268Z,14.40
2023-05-31T02:11:49.671Z,14.40
2023-05-31T02:14:18.857Z,14.30
2023-05-31T02:16:47.900Z,14.30
2023-05-31T02:19:17.488Z,14.30
2023-05-31T02:21:46.394Z,14.30
2023-05-31T02:24:15.500Z,14.20
2023-05-31T02:26:44.252Z,14.20
2023-05-31T02:29:14.421Z,14.20
2023-05-31T02:31:43.034Z,14.10
2023-05-31T02:34:12.005Z,14.10
2023-05-31T02:36:41.426Z,14.10
2023-05-31T02:39:11.009Z,14.10
2023-05-31T02:41:41.278Z,14.10
2023-05-31T02:44:10.210Z,14.00
2023-05-31T02:46:42.466Z,14.00
2023-05-31T02:49:16.093Z,14.00
2023-05-31T02:51:45.689Z,13.90
2023-05-31T02:54:35.346Z,13.90
2023-05-31T02:57:07.287Z,13.80
2023-05-31T02:59:39.299Z,13.80
2023-05-31T03:02:13.508Z,13.70
2023-05-31T03:04:49.276Z,13.70
2023-05-31T03:07:19.679Z,13.60
2023-05-31T03:09:49.812Z,13.60
2023-05-31T03:12:18.787Z,13.60
2023-05-31T03:14:51.379Z,13.50
2023-05-31T03:17:21.810Z,13.50
2023-05-31T03:19:51.197Z,13.40
2023-05-31T03:22:22.098Z,13.40
2023-05-31T03:24:51.716Z,13.30
2023-05-31T03:27:22.131Z,13.30
2023-05-31T03:29:53.724Z,13.20
2023-05-31T03:32:24.246Z,13.10
2023-05-31T03:34:54.220Z,13.10
2023-05-31T03:37:23.338Z,13.00
2023-05-31T03:39:58.545Z,13.00
2023-05-31T03:42:32.878Z,12.90
2023-05-31T03:45:02.263Z,12.90
2023-05-31T03:47:33.437Z,12.80
2023-05-31T03:50:03.006Z,12.80
2023-05-31T03:52:33.402Z,12.80
2023-05-31T03:55:05.185Z,12.80
2023-05-31T03:57:34.704Z,12.80
2023-05-31T04:00:04.772Z,12.80
2023-05-31T04:02:51.955Z,12.80
2023-05-31T04:05:33.262Z,12.80
2023-05-31T04:08:03.496Z,12.80
2023-05-31T04:10:34.797Z,12.90
2023-05-31T04:13:04.461Z,13.00
2023-05-31T04:15:33.622Z,13.00
2023-05-31T04:18:07.460Z,13.10
2023-05-31T04:20:36.995Z,13.20
2023-05-31T04:23:07.182Z,13.30
2023-05-31T04:25:36.767Z,13.40
2023-05-31T04:28:08.039Z,13.50
2023-05-31T04:30:37.116Z,13.60
2023-05-31T04:33:07.452Z,13.60
2023-05-31T04:35:38.139Z,13.70
2023-05-31T04:38:09.561Z,13.80
2023-05-31T04:40:40.125Z,13.90
2023-05-31T04:43:09.652Z,13.90
2023-05-31T04:45:39.452Z,14.00
2023-05-31T04:48:11.751Z,14.10
2023-05-31T04:50:41.550Z,14.20
2023-05-31T04:53:10.138Z,14.30
2023-05-31T04:55:39.096Z,14.40
2023-05-31T04:58:12.365Z,14.50
2023-05-31T05:00:41.141Z,14.60
2023-05-31T05:03:32.884Z,14.70
2023-05-31T05:06:04.763Z,14.80
2023-05-31T05:08:34.428Z,14.90
2023-05-31T05:11:04.049Z,15.00
2023-05-31T05:13:33.261Z,15.10
2023-05-31T05:16:01.858Z,15.10
2023-05-31T05:18:32.205Z,15.20
2023-05-31T05:21:02.530Z,15.30
2023-05-31T05:23:34.538Z,15.40
2023-05-31T05:26:03.395Z,15.50
2023-05-31T05:28:34.047Z,15.60
2023-05-31T05:31:07.986Z,15.70
2023-05-31T05:33:42.501Z,15.80
2023-05-31T05:36:13.564Z,15.90
2023-05-31T05:38:49.228Z,15.90
2023-05-31T05:41:18.259Z,16.10
2023-05-31T05:43:47.298Z,16.10
2023-05-31T05:46:19.317Z,16.20
2023-05-31T05:48:53.094Z,16.40
2023-05-31T05:51:24.861Z,16.40
2023-05-31T05:53:57.049Z,16.60
2023-05-31T05:56:25.905Z,16.70
2023-05-31T05:58:58.676Z,16.70
2023-05-31T06:01:47.134Z,16.90
2023-05-31T06:04:22.230Z,16.90
2023-05-31T06:06:51.858Z,17.00
2023-05-31T06:09:22.436Z,17.00
2023-05-31T06:11:52.152Z,17.20
2023-05-31T06:14:22.091Z,17.30
2023-05-31T06:16:54.248Z,17.30
2023-05-31T06:19:25.007Z,17.40
2023-05-31T06:21:54.931Z,17.60
2023-05-31T06:24:24.267Z,17.60
2023-05-31T06:26:53.609Z,17.70
2023-05-31T06:29:28.892Z,17.80
2023-05-31T06:31:58.369Z,17.90
2023-05-31T06:34:33.484Z,18.10
2023-05-31T06:37:04.108Z,18.20
2023-05-31T06:39:35.397Z,18.30
2023-05-31T06:42:05.343Z,18.50
2023-05-31T06:44:55.065Z,18.60
2023-05-31T06:47:44.618Z,18.70
2023-05-31T06:50:26.405Z,18.90
2023-05-31T06:53:07.099Z,19.00
2023-05-31T06:55:51.013Z,19.20
2023-05-31T06:58:23.946Z,19.30
2023-05-31T07:00:55.004Z,19.50
2023-05-31T07:03:24.132Z,19.60
2023-05-31T07:05:54.538Z,19.80
2023-05-31T07:08:24.416Z,19.90
2023-05-31T07:11:16.398Z,20.00
2023-05-31T07:13:45.614Z,20.10
2023-05-31T07:16:14.679Z,20.20
2023-05-31T07:18:43.732Z,20.30
2023-05-31T07:21:15.243Z,20.40
2023-05-31T07:23:44.317Z,20.50
2023-05-31T07:26:13.227Z,20.70
2023-05-31T07:28:42.243Z,20.80
2023-05-31T07:31:10.844Z,21.00
2023-05-31T07:33:39.582Z,21.10
2023-05-31T07:36:09.048Z,21.20
2023-05-31T07:38:39.042Z,21.30
2023-05-31T07:41:08.777Z,21.40
2023-05-31T07:43:42.041Z,21.50
2023-05-31T07:46:10.887Z,21.40
2023-05-31T07:48:41.129Z,21.40
2023-05-31T07:51:10.233Z,21.50
2023-05-31T07:53:41.118Z,21.50
2023-05-31T07:56:11.084Z,21.80
2023-05-31T07:58:41.864Z,21.80
2023-05-31T08:01:11.453Z,21.80
2023-05-31T08:03:41.521Z,21.80
2023-05-31T08:06:11.096Z,21.90
2023-05-31T08:08:42.642Z,21.90
2023-05-31T08:11:11.849Z,21.90
2023-05-31T08:13:41.386Z,21.90
2023-05-31T08:16:10.505Z,22.00
2023-05-31T08:18:39.095Z,22.20
2023-05-31T08:21:08.239Z,22.30
2023-05-31T08:23:37.257Z,22.40
2023-05-31T08:26:07.727Z,22.50
2023-05-31T08:28:36.758Z,22.60
2023-05-31T08:31:06.208Z,22.70
2023-05-31T08:33:35.631Z,22.80
2023-05-31T08:36:05.215Z,23.00
2023-05-31T08:38:37.731Z,23.20
2023-05-31T08:41:09.066Z,23.40
2023-05-31T08:43:38.052Z,23.60
2023-05-31T08:46:07.913Z,23.80
2023-05-31T08:48:45.444Z,23.90
2023-05-31T08:51:16.860Z,24.10
2023-05-31T08:53:45.886Z,24.10
2023-05-31T08:56:18.103Z,24.30
2023-05-31T08:58:51.682Z,24.30
2023-05-31T09:01:20.959Z,24.40
2023-05-31T09:03:49.895Z,24.30
2023-05-31T09:06:19.177Z,24.30
2023-05-31T09:08:50.568Z,24.40
2023-05-31T09:11:20.621Z,24.40
2023-05-31T09:13:50.642Z,24.40
2023-05-31T09:16:19.784Z,24.50
2023-05-31T09:18:48.873Z,24.50
2023-05-31T09:21:17.609Z,24.50
2023-05-31T09:23:55.739Z,24.60
2023-05-31T09:26:28.464Z,24.60
2023-05-31T09:28:59.089Z,24.60
2023-05-31T09:31:28.948Z,24.80
2023-05-31T09:33:58.969Z,24.90
2023-05-31T09:36:31.636Z,25.00
2023-05-31T09:39:05.873Z,25.10
2023-05-31T09:41:36.124Z,25.30
2023-05-31T09:44:05.364Z,25.50
2023-05-31T09:46:34.196Z,25.60
2023-05-31T09:49:07.434Z,25.80
2023-05-31T09:51:38.916Z,26.00
2023-05-31T09:54:14.706Z,26.20
2023-05-31T09:56:45.592Z,26.20
2023-05-31T09:59:19.017Z,26.40
2023-05-31T10:01:48.099Z,26.50
2023-05-31T10:04:18.129Z,26.60
2023-05-31T10:06:47.754Z,26.90
2023-05-31T10:09:16.739Z,26.70
2023-05-31T10:11:53.700Z,26.90
2023-05-31T10:14:28.517Z,27.10
2023-05-31T10:16:58.518Z,27.30
2023-05-31T10:19:36.781Z,27.30
2023-05-31T10:22:08.652Z,27.40
2023-05-31T10:24:46.437Z,27.50
2023-05-31T10:27:25.389Z,27.60
2023-05-31T10:29:58.026Z,27.70
2023-05-31T10:32:29.263Z,28.00
2023-05-31T10:34:58.506Z,27.90
2023-05-31T10:37:27.393Z,27.80
2023-05-31T10:40:06.529Z,27.90
2023-05-31T10:42:44.602Z,28.10
2023-05-31T10:45:18.897Z,28.20
2023-05-31T10:47:56.023Z,28.10
2023-05-31T10:50:25.270Z,28.30
2023-05-31T10:52:54.812Z,28.40
2023-05-31T10:55:28.453Z,28.40
2023-05-31T10:57:58.889Z,28.50
2023-05-31T11:00:28.364Z,28.40
2023-05-31T11:03:00.148Z,28.60
2023-05-31T11:05:29.571Z,28.70
2023-05-31T11:08:01.617Z,28.90
2023-05-31T11:10:33.781Z,28.90
2023-05-31T11:13:07.658Z,28.90
2023-05-31T11:15:44.982Z,28.90
2023-05-31T11:18:18.625Z,28.90
2023-05-31T11:20:48.349Z,29.10
2023-05-31T11:23:29.927Z,29.20
2023-05-31T11:26:19.503Z,29.40
2023-05-31T11:29:00.354Z,29.60
2023-05-31T11:32:02.567Z,29.60
2023-05-31T11:34:34.949Z,29.80
2023-05-31T11:37:06.760Z,29.60
2023-05-31T11:39:35.857Z,29.30
2023-05-31T11:42:06.539Z,29.10
2023-05-31T11:44:44.766Z,29.10
2023-05-31T11:47:19.910Z,29.40
2023-05-31T11:49:50.198Z,29.60
2023-05-31T11:52:21.513Z,29.50
2023-05-31T11:54:55.013Z,29.50
2023-05-31T11:57:23.524Z,29.60
2023-05-31T11:59:55.571Z,29.70
2023-05-31T12:02:24.828Z,29.80
2023-05-31T12:04:55.016Z,29.70
2023-05-31T12:07:26.829Z,29.80
2023-05-31T12:09:56.755Z,29.90
2023-05-31T12:12:26.214Z,29.80
2023-05-31T12:15:00.881Z,30.00
2023-05-31T12:17:32.762Z,30.10
2023-05-31T12:20:02.485Z,30.10
2023-05-31T12:22:31.303Z,30.10
2023-05-31T12:25:02.572Z,30.20
2023-05-31T12:27:44.697Z,30.20
2023-05-31T12:30:20.790Z,29.90
2023-05-31T12:32:51.157Z,29.90
2023-05-31T12:35:20.232Z,30.00
2023-05-31T12:37:49.304Z,29.90
2023-05-31T12:40:23.939Z,30.00
2023-05-31T12:42:53.432Z,29.90
2023-05-31T12:45:23.664Z,29.70
2023-05-31T12:48:00.412Z,29.60
2023-05-31T12:50:31.323Z,29.60
2023-05-31T12:53:01.995Z,29.70
2023-05-31T12:55:32.615Z,29.80
2023-05-31T12:58:05.662Z,29.60
2023-05-31T13:00:37.108Z,29.40
2023-05-31T13:03:08.359Z,29.50
2023-05-31T13:05:41.928Z,29.50
2023-05-31T13:08:11.303Z,29.40
2023-05-31T13:10:43.136Z,29.40
2023-05-31T13:13:11.948Z,29.20
2023-05-31T13:15:42.741Z,29.10
2023-05-31T13:18:14.258Z,29.00
2023-05-31T13:20:43.163Z,29.10
2023-05-31T13:23:14.160Z,28.90
2023-05-31T13:25:43.059Z,29.10
2023-05-31T13:28:12.186Z,28.90
2023-05-31T13:30:42.724Z,28.90
2023-05-31T13:33:11.611Z,28.90
2023-05-31T13:35:41.254Z,28.90
2023-05-31T13:38:09.879Z,28.80
2023-05-31T13:40:41.228Z,28.80
2023-05-31T13:43:10.977Z,28.80
2023-05-31T13:45:39.679Z,28.70
2023-05-31T13:48:10.131Z,28.80
2023-05-31T13:50:39.088Z,28.70
2023-05-31T13:53:07.859Z,28.60
2023-05-31T13:55:39.580Z,28.60
2023-05-31T13:58:09.792Z,28.50
2023-05-31T14:00:45.809Z,28.30
2023-05-31T14:03:26.460Z,28.30
2023-05-31T14:05:55.522Z,28.40
2023-05-31T14:08:25.824Z,28.30
2023-05-31T14:10:54.732Z,28.40
2023-05-31T14:13:24.341Z,28.40
2023-05-31T14:15:55.595Z,28.30
2023-05-31T14:18:26.037Z,28.30
2023-05-31T14:20:55.526Z,28.30
2023-05-31T14:23:24.634Z,28.30
2023-05-31T14:25:54.784Z,28.30
2023-05-31T14:28:28.872Z,28.20
2023-05-31T14:30:59.931Z,28.20
2023-05-31T14:33:31.009Z,28.10
2023-05-31T14:36:00.576Z,28.00
2023-05-31T14:38:35.171Z,28.00
2023-05-31T14:41:07.382Z,28.00
2023-05-31T14:43:38.266Z,27.90
2023-05-31T14:46:07.532Z,27.80
2023-05-31T14:48:37.665Z,27.90
2023-05-31T14:51:08.169Z,27.90
2023-05-31T14:53:38.639Z,27.90
2023-05-31T14:56:17.786Z,27.90
2023-05-31T14:58:49.147Z,27.80
2023-05-31T15:01:21.152Z,27.70
2023-05-31T15:03:51.707Z,27.60
2023-05-31T15:06:23.062Z,27.60
2023-05-31T15:08:55.925Z,27.50
2023-05-31T15:11:24.670Z,27.50
2023-05-31T15:13:53.805Z,27.60
2023-05-31T15:16:22.603Z,27.60
2023-05-31T15:18:53.327Z,27.60
2023-05-31T15:21:22.674Z,27.60
2023-05-31T15:23:51.366Z,27.60
2023-05-31T15:26:23.446Z,27.60
2023-05-31T15:28:53.375Z,27.60
2023-05-31T15:31:23.104Z,27.40
2023-05-31T15:33:53.431Z,27.40
2023-05-31T15:36:22.336Z,27.30
2023-05-31T15:38:52.180Z,27.30
2023-05-31T15:41:21.575Z,27.40
2023-05-31T15:43:50.499Z,27.30
2023-05-31T15:46:19.640Z,27.30
2023-05-31T15:48:48.918Z,27.30
2023-05-31T15:51:19.710Z,27.30
2023-05-31T15:53:48.780Z,27.20
2023-05-31T15:56:17.724Z,27.20
2023-05-31T15:58:46.495Z,27.10
2023-05-31T16:01:17.069Z,27.00
2023-05-31T16:03:45.992Z,27.00
2023-05-31T16:06:15.418Z,26.90
2023-05-31T16:08:46.081Z,26.80
2023-05-31T16:11:15.369Z,26.80
2023-05-31T16:13:45.964Z,26.70
2023-05-31T16:16:14.732Z,26.70
2023-05-31T16:18:44.449Z,26.60
2023-05-31T16:21:14.970Z,26.60
2023-05-31T16:23:45.580Z,26.60
2023-05-31T16:26:15.867Z,26.50
2023-05-31T16:28:44.528Z,26.50
2023-05-31T16:31:14.990Z,26.50
2023-05-31T16:33:45.553Z,26.50
2023-05-31T16:36:15.879Z,26.40
2023-05-31T16:38:48.889Z,26.30
2023-05-31T16:41:20.548Z,26.30
2023-05-31T16:43:49.463Z,26.30
2023-05-31T16:46:18.889Z,26.30
2023-05-31T16:48:49.889Z,26.20
2023-05-31T16:51:18.825Z,26.20
2023-05-31T16:53:49.642Z,26.20
2023-05-31T16:56:19.469Z,26.10
2023-05-31T16:58:48.511Z,26.10
2023-05-31T17:01:17.110Z,26.00
2023-05-31T17:03:46.290Z,25.90
2023-05-31T17:06:17.668Z,25.90
2023-05-31T17:08:48.940Z,25.80
2023-05-31T17:11:18.478Z,25.70
2023-05-31T17:13:48.870Z,25.60
2023-05-31T17:16:17.751Z,25.60
2023-05-31T17:18:47.675Z,25.50
2023-05-31T17:21:17.242Z,25.50
2023-05-31T17:23:45.941Z,25.50
2023-05-31T17:26:19.661Z,25.40
2023-05-31T17:28:48.541Z,25.30
2023-05-31T17:31:22.569Z,25.20
2023-05-31T17:33:54.592Z,25.20
2023-05-31T17:36:31.489Z,25.10
2023-05-31T17:39:01.465Z,25.10
2023-05-31T17:41:33.812Z,25.00
2023-05-31T17:44:02.485Z,24.90
2023-05-31T17:46:33.103Z,24.90
2023-05-31T17:49:04.888Z,24.90
2023-05-31T17:51:35.303Z,24.80
2023-05-31T17:54:06.515Z,24.70
2023-05-31T17:56:37.822Z,24.60
2023-05-31T17:59:07.742Z,24.60
2023-05-31T18:01:41.504Z,24.50
2023-05-31T18:04:11.689Z,24.50
2023-05-31T18:06:41.412Z,24.40
2023-05-31T18:09:11.943Z,24.30
2023-05-31T18:11:42.974Z,24.30
2023-05-31T18:14:12.039Z,24.20
2023-05-31T18:16:42.612Z,24.10
2023-05-31T18:19:12.133Z,24.00
2023-05-31T18:21:41.679Z,24.00
2023-05-31T18:24:12.051Z,23.80
2023-05-31T18:26:44.275Z,23.70
2023-05-31T18:29:14.384Z,23.60
2023-05-31T18:31:44.383Z,23.50
2023-05-31T18:34:13.253Z,23.40
2023-05-31T18:36:42.350Z,23.30
2023-05-31T18:39:13.798Z,23.30
2023-05-31T18:41:45.278Z,23.10
2023-05-31T18:44:13.926Z,23.10
2023-05-31T18:46:43.153Z,23.00
2023-05-31T18:49:11.912Z,22.90
2023-05-31T18:51:41.445Z,22.80
2023-05-31T18:54:11.021Z,22.70
2023-05-31T18:56:40.253Z,22.60
2023-05-31T18:59:10.696Z,22.50
2023-05-31T19:01:39.879Z,22.40
2023-05-31T19:04:09.326Z,22.30
2023-05-31T19:06:38.530Z,22.20
2023-05-31T19:09:09.354Z,22.10
2023-05-31T19:11:38.793Z,22.00
2023-05-31T19:14:07.602Z,21.90
2023-05-31T19:16:38.531Z,21.80
2023-05-31T19:19:08.013Z,21.70
2023-05-31T19:21:37.510Z,21.60
2023-05-31T19:24:08.011Z,21.50
2023-05-31T19:26:36.717Z,21.40
2023-05-31T19:29:05.774Z,21.30
2023-05-31T19:31:34.721Z,21.20
2023-05-31T19:34:05.372Z,21.10
2023-05-31T19:36:38.994Z,21.00
2023-05-31T19:39:08.801Z,20.90
2023-05-31T19:41:38.093Z,20.80
2023-05-31T19:44:08.609Z,20.60
2023-05-31T19:46:37.250Z,20.60
2023-05-31T19:49:08.751Z,20.50
2023-05-31T19:51:39.878Z,20.40
2023-05-31T19:54:08.458Z,20.20
2023-05-31T19:56:37.782Z,20.10
2023-05-31T19:59:06.480Z,20.00
2023-05-31T20:01:45.729Z,20.00
2023-05-31T20:04:16.366Z,19.80
2023-05-31T20:06:45.258Z,19.70
2023-05-31T20:09:14.057Z,19.60
2023-05-31T20:11:43.078Z,19.50
2023-05-31T20:14:11.707Z,19.40
2023-05-31T20:16:41.013Z,19.30
2023-05-31T20:19:11.712Z,19.20
2023-05-31T20:21:42.242Z,19.00
2023-05-31T20:24:12.060Z,18.90
2023-05-31T20:26:42.162Z,18.80
2023-05-31T20:29:11.217Z,18.70
2023-05-31T20:31:40.082Z,18.50
2023-05-31T20:34:08.873Z,18.40
2023-05-31T20:36:38.830Z,18.30
2023-05-31T20:39:09.708Z,18.20
2023-05-31T20:41:39.100Z,18.10
2023-05-31T20:44:09.361Z,17.90
2023-05-31T20:46:39.198Z,17.80
2023-05-31T20:49:08.315Z,17.70
2023-05-31T20:51:37.662Z,17.70
2023-05-31T20:54:09.517Z,17.50
2023-05-31T20:56:38.458Z,17.40
2023-05-31T20:59:09.352Z,17.40
2023-05-31T21:01:38.441Z,17.30
2023-05-31T21:04:09.574Z,17.20
2023-05-31T21:06:38.389Z,17.20
2023-05-31T21:09:11.049Z,17.10
2023-05-31T21:11:46.300Z,17.00
2023-05-31T21:14:15.527Z,17.00
2023-05-31T21:16:45.544Z,16.90
2023-05-31T21:19:15.373Z,16.70
2023-05-31T21:21:46.300Z,16.70
2023-05-31T21:24:16.515Z,16.60
2023-05-31T21:26:45.524Z,16.50
2023-05-31T21:29:17.737Z,16.40
2023-05-31T21:31:48.475Z,16.40
2023-05-31T21:34:17.444Z,16.30
2023-05-31T21:36:46.330Z,16.30
2023-05-31T21:39:17.077Z,16.20
2023-05-31T21:41:48.626Z,16.10
2023-05-31T21:44:17.616Z,16.10
2023-05-31T21:46:46.903Z,16.00
2023-05-31T21:49:15.536Z,15.90
2023-05-31T21:51:46.473Z,15.80
2023-05-31T21:54:16.967Z,15.80
2023-05-31T21:56:46.569Z,15.70
2023-05-31T21:59:16.746Z,15.70
2023-05-31T22:01:45.902Z,15.60
2023-05-31T22:04:15.194Z,15.50
2023-05-31T22:06:43.798Z,15.50
2023-05-31T22:09:15.010Z,15.40
2023-05-31T22:11:45.461Z,15.30
2023-05-31T22:14:21.181Z,15.30
2023-05-31T22:16:51.956Z,15.20
2023-05-31T22:19:26.748Z,15.10
2023-05-31T22:21:56.191Z,15.10
2023-05-31T22:24:25.240Z,15.00
2023-05-31T22:26:55.970Z,15.00
2023-05-31T22:29:25.994Z,14.90
2023-05-31T22:31:55.050Z,14.90
2023-05-31T22:34:25.610Z,14.80
2023-05-31T22:36:54.593Z,14.80
2023-05-31T22:39:24.686Z,14.70
2023-05-31T22:41:54.973Z,14.70
2023-05-31T22:44:23.677Z,14.70
2023-05-31T22:46:52.476Z,14.60
2023-05-31T22:49:23.657Z,14.60
2023-05-31T22:51:53.462Z,14.50
2023-05-31T22:54:24.833Z,14.50
2023-05-31T22:56:55.375Z,14.40
2023-05-31T22:59:24.354Z,14.40
2023-05-31T23:01:53.317Z,14.30
2023-05-31T23:04:22.127Z,14.30
2023-05-31T23:06:50.952Z,14.30
2023-05-31T23:09:20.159Z,14.20
2023-05-31T23:11:50.753Z,14.20
2023-05-31T23:14:21.866Z,14.10
2023-05-31T23:16:50.801Z,14.10
2023-05-31T23:19:20.934Z,14.00
2023-05-31T23:21:51.181Z,14.00
2023-05-31T23:24:20.253Z,13.90
2023-05-31T23:26:49.378Z,13.90
2023-05-31T23:29:21.323Z,13.80
2023-05-31T23:31:50.204Z,13.80
2023-05-31T23:34:19.329Z,13.80
2023-05-31T23:36:47.845Z,13.70
2023-05-31T23:39:17.644Z,13.70
2023-05-31T23:41:46.487Z,13.60
2023-05-31T23:44:18.970Z,13.60
2023-05-31T23:46:49.383Z,13.60
2023-05-31T23:49:19.170Z,13.50
2023-05-31T23:51:50.091Z,13.50
2023-05-31T23:54:19.240Z,13.40
2023-05-31T23:56:48.890Z,13.40
2023-05-31T23:59:17.888Z,13.30
